Time;durP1;ratioP1;P1;durP2;ratioP2;P2;SDS_P1;SDS_P2;PMS_P1;PMS_P2;Temp;Humidity;BMP_temperature;BMP_pressure;BME280_temperature;BME280_humidity;BME280_pressure;Samples;Min_cycle;Max_cycle;Signal;HPM_P1;HPM_P2
2021/11/10 00:00:09;;;;;;;10.15;4.00;;;;;;;9.44;100.00;101583.16;5034006;28;20394;-85
2021/11/10 00:02:34;;;;;;;12.95;3.78;;;;;;;9.43;100.00;101585.00;5050347;28;20025;-84
2021/11/10 00:05:00;;;;;;;22.30;4.15;;;;;;;9.41;100.00;101572.72;5033986;28;20390;-83
2021/11/10 00:07:28;;;;;;;14.73;4.10;;;;;;;9.48;100.00;101583.72;5034036;28;20025;-84
2021/11/10 00:09:54;;;;;;;13.73;3.70;;;;;;;9.51;100.00;101586.94;5033927;28;20118;-83
2021/11/10 00:12:20;;;;;;;14.77;4.40;;;;;;;9.50;100.00;101581.69;5050124;28;20028;-84
2021/11/10 00:14:45;;;;;;;10.57;3.58;;;;;;;9.44;100.00;101578.63;5017210;28;20029;-84
2021/11/10 00:17:11;;;;;;;9.98;3.65;;;;;;;9.44;100.00;101583.16;5050320;28;20045;-84
2021/11/10 00:19:36;;;;;;;14.45;3.95;;;;;;;9.38;100.00;101575.69;5033743;28;20383;-85
2021/11/10 00:22:02;;;;;;;15.85;3.83;;;;;;;9.42;100.00;101575.25;5033852;28;20490;-85
2021/11/10 00:24:28;;;;;;;16.75;3.95;;;;;;;9.46;100.00;101584.69;5034051;28;20097;-84
2021/11/10 00:26:53;;;;;;;9.40;3.47;;;;;;;9.46;100.00;101578.47;5017543;28;20075;-86
2021/11/10 00:29:19;;;;;;;16.92;3.90;;;;;;;9.40;100.00;101576.41;5017622;28;20072;-85
2021/11/10 00:31:45;;;;;;;14.75;3.70;;;;;;;9.39;100.00;101570.19;5050295;28;20520;-83
2021/11/10 00:34:10;;;;;;;14.77;3.75;;;;;;;9.41;100.00;101580.75;5016673;28;20033;-83
2021/11/10 00:36:36;;;;;;;13.40;4.00;;;;;;;9.34;100.00;101576.97;5017291;28;20471;-84
2021/11/10 00:39:02;;;;;;;10.63;4.00;;;;;;;9.37;100.00;101576.69;5033635;28;20064;-87
2021/11/10 00:41:28;;;;;;;11.82;3.60;;;;;;;9.29;100.00;101560.47;5033650;28;20171;-83
2021/11/10 00:43:59;;;;;;;10.13;3.20;;;;;;;9.37;100.00;101582.91;5016972;28;20119;-84
2021/11/10 00:46:25;;;;;;;12.48;3.70;;;;;;;9.35;100.00;101581.38;5017871;28;20029;-85
2021/11/10 00:48:51;;;;;;;19.63;3.70;;;;;;;9.35;100.00;101576.00;5049789;28;20029;-84
2021/11/10 00:51:16;;;;;;;9.55;2.97;;;;;;;9.33;100.00;101577.97;5033550;28;20376;-84
2021/11/10 00:53:42;;;;;;;9.60;2.90;;;;;;;9.29;100.00;101577.44;5033182;28;20029;-85
2021/11/10 00:56:08;;;;;;;15.55;3.55;;;;;;;9.20;100.00;101572.94;5033259;28;20459;-84
2021/11/10 00:58:33;;;;;;;10.77;3.15;;;;;;;9.27;100.00;101582.09;5049647;28;20032;-84
2021/11/10 01:00:59;;;;;;;12.90;3.50;;;;;;;9.32;100.00;101597.78;5033647;28;20037;-84
2021/11/10 01:03:27;;;;;;;10.93;2.80;;;;;;;9.30;100.00;101595.22;5049876;28;20029;-84
2021/11/10 01:05:55;;;;;;;14.30;2.92;;;;;;;9.29;100.00;101595.34;5033644;28;20039;-85
2021/11/10 01:08:21;;;;;;;14.88;2.88;;;;;;;9.24;100.00;101588.59;5049739;28;20060;-86
2021/11/10 01:10:47;;;;;;;12.95;3.28;;;;;;;9.28;100.00;101593.69;5033389;28;20025;-85
2021/11/10 01:13:13;;;;;;;10.35;2.97;;;;;;;9.33;100.00;101602.13;5049445;28;20117;-85
2021/11/10 01:15:40;;;;;;;10.38;2.92;;;;;;;9.31;100.00;101599.59;5049542;28;20099;-83
2021/11/10 01:18:06;;;;;;;8.98;2.53;;;;;;;9.28;100.00;101597.19;5033343;28;20056;-84
2021/11/10 01:20:31;;;;;;;8.10;2.28;;;;;;;9.27;100.00;101602.72;5016881;28;20053;-84
2021/11/10 01:22:58;;;;;;;12.93;2.83;;;;;;;9.26;100.00;101601.84;5034728;28;20091;-84
2021/11/10 01:25:24;;;;;;;9.35;2.53;;;;;;;9.29;100.00;101598.03;5036959;28;20519;-86
2021/11/10 01:27:50;;;;;;;12.05;2.72;;;;;;;9.32;100.00;101600.47;5036982;28;20131;-83
2021/11/10 01:30:16;;;;;;;10.38;2.50;;;;;;;9.29;100.00;101595.34;5020472;28;20037;-84
2021/11/10 01:32:42;;;;;;;15.90;2.88;;;;;;;9.29;100.00;101606.97;5036871;28;20040;-84
2021/11/10 01:35:08;;;;;;;7.45;2.63;;;;;;;9.28;100.00;101602.56;5020352;28;20509;-85
2021/11/10 01:37:34;;;;;;;7.10;2.38;;;;;;;9.23;100.00;101603.03;5054512;28;20037;-84
2021/11/10 01:39:59;;;;;;;8.90;2.28;;;;;;;9.25;100.00;101603.69;5036550;28;20033;-84
2021/11/10 01:42:30;;;;;;;7.53;2.17;;;;;;;9.16;100.00;101579.59;5053036;28;20025;-83
2021/11/10 01:44:57;;;;;;;10.65;2.72;;;;;;;9.24;100.00;101599.34;5037016;28;20033;-84
2021/11/10 01:47:23;;;;;;;10.35;2.78;;;;;;;9.21;100.00;101596.13;5053099;28;20067;-84
2021/11/10 01:49:49;;;;;;;10.60;2.63;;;;;;;9.20;100.00;101591.72;5019773;28;20061;-84
2021/11/10 01:52:15;;;;;;;11.32;2.60;;;;;;;9.17;100.00;101587.50;5053086;28;20025;-84
2021/11/10 01:54:41;;;;;;;8.73;2.45;;;;;;;9.12;100.00;101578.19;5019359;28;20925;-83
2021/11/10 01:57:10;;;;;;;9.63;2.33;;;;;;;8.97;100.00;101570.63;5020122;28;20037;-86
2021/11/10 01:59:47;;;;;;;8.10;2.35;;;;;;;8.90;100.00;101577.56;5019514;28;20076;-84
2021/11/10 02:02:27;;;;;;;14.18;2.95;;;;;;;8.74;100.00;101574.63;5036370;28;20047;-84
2021/11/10 02:04:53;;;;;;;8.60;2.03;;;;;;;8.69;100.00;101575.06;5037242;28;20033;-85
2021/11/10 02:07:19;;;;;;;11.85;3.00;;;;;;;8.56;100.00;101574.50;5052526;28;20529;-85
2021/11/10 02:09:48;;;;;;;7.35;2.10;;;;;;;8.56;100.00;101582.53;5052169;28;20044;-85
2021/11/10 02:12:14;;;;;;;11.32;2.72;;;;;;;8.45;100.00;101578.19;5052468;28;20559;-85
2021/11/10 02:14:40;;;;;;;7.13;1.95;;;;;;;8.38;100.00;101575.19;5035751;28;20032;-84
2021/11/10 02:17:07;;;;;;;10.30;2.60;;;;;;;8.35;100.00;101582.66;5019665;28;20075;-85
2021/11/10 02:19:33;;;;;;;14.13;2.75;;;;;;;8.23;100.00;101568.56;5019210;28;20087;-84
2021/11/10 02:22:01;;;;;;;11.23;3.08;;;;;;;8.24;100.00;101588.16;5036031;28;20040;-84
2021/11/10 02:24:28;;;;;;;10.27;2.17;;;;;;;8.17;100.00;101570.94;5019246;28;20120;-84
2021/11/10 02:26:54;;;;;;;12.80;2.35;;;;;;;8.25;100.00;101573.78;5019682;28;20033;-84
2021/11/10 02:29:22;;;;;;;5.85;1.63;;;;;;;8.25;100.00;101571.94;5019439;28;20037;-84
2021/11/10 02:31:48;;;;;;;7.90;2.33;;;;;;;8.30;100.00;101571.50;5035893;28;20474;-84
2021/11/10 02:34:14;;;;;;;10.57;2.60;;;;;;;8.35;100.00;101578.13;5018126;28;20029;-84
2021/11/10 02:36:40;;;;;;;11.27;2.50;;;;;;;8.25;100.00;101560.38;5019412;28;20059;-83
2021/11/10 02:39:12;;;;;;;8.20;2.70;;;;;;;8.35;100.00;101578.13;5035113;28;20087;-84
2021/11/10 02:41:38;;;;;;;7.13;2.38;;;;;;;8.39;100.00;101586.78;5068611;28;20475;-84
2021/11/10 02:44:05;;;;;;;5.28;2.35;;;;;;;8.30;100.00;101561.63;5035543;28;20025;-84
2021/11/10 02:46:33;;;;;;;10.80;3.50;;;;;;;8.34;100.00;101573.78;5018999;28;20037;-84
2021/11/10 02:48:58;;;;;;;13.15;4.43;;;;;;;8.40;100.00;101584.97;5051877;28;20471;-87
2021/11/10 02:51:24;;;;;;;10.38;3.00;;;;;;;8.26;100.00;101562.09;5018879;28;20075;-84
2021/11/10 02:53:50;;;;;;;9.50;3.22;;;;;;;8.25;100.00;101569.25;5051785;28;20078;-84
2021/11/10 02:56:16;;;;;;;10.20;2.65;;;;;;;8.25;100.00;101571.94;5035298;28;20032;-84
2021/11/10 02:58:42;;;;;;;9.07;2.63;;;;;;;8.26;100.00;101576.31;5018633;28;20037;-86
2021/11/10 03:01:08;;;;;;;12.25;2.47;;;;;;;8.28;100.00;101577.03;5018558;28;20033;-85
2021/11/10 03:03:33;;;;;;;5.03;2.03;;;;;;;8.28;100.00;101578.84;5051538;28;20475;-86
2021/11/10 03:05:59;;;;;;;9.82;2.33;;;;;;;8.36;100.00;101581.66;5034990;28;20029;-84
2021/11/10 03:08:25;;;;;;;9.00;2.15;;;;;;;8.36;100.00;101585.22;5018394;28;20033;-86
2021/11/10 03:10:51;;;;;;;6.93;2.55;;;;;;;8.43;100.00;101587.34;5035035;28;20072;-84
2021/11/10 03:13:17;;;;;;;9.38;2.17;;;;;;;8.47;100.00;101597.66;5051662;28;20126;-84
2021/11/10 03:15:44;;;;;;;6.40;2.10;;;;;;;8.53;100.00;101605.13;5034607;28;20463;-83
2021/11/10 03:18:10;;;;;;;7.22;1.80;;;;;;;8.58;100.00;101600.19;5018313;28;20559;-83
2021/11/10 03:20:36;;;;;;;3.83;1.90;;;;;;;8.62;100.00;101607.94;5051352;28;20062;-84
2021/11/10 03:23:04;;;;;;;9.63;2.60;;;;;;;8.66;100.00;101602.16;5018290;28;20037;-83
2021/11/10 03:25:30;;;;;;;8.20;2.00;;;;;;;8.65;100.00;101595.06;5034799;28;20040;-84
2021/11/10 03:27:56;;;;;;;13.30;2.70;;;;;;;8.65;100.00;101603.13;5051025;28;20028;-84
2021/11/10 03:30:22;;;;;;;12.63;3.33;;;;;;;8.69;100.00;101603.69;5034592;28;20036;-84
2021/11/10 03:32:49;;;;;;;21.48;3.28;;;;;;;8.60;100.00;101583.97;5018272;28;20380;-86
2021/11/10 03:35:14;;;;;;;15.85;3.80;;;;;;;8.66;100.00;101596.78;5018311;28;20128;-85
2021/11/10 03:37:41;;;;;;;21.48;3.83;;;;;;;8.57;100.00;101589.59;5034259;28;20163;-84
2021/11/10 03:40:08;;;;;;;17.33;3.40;;;;;;;8.59;100.00;101599.19;5034359;28;20029;-83
2021/11/10 03:42:34;;;;;;;16.20;4.35;;;;;;;8.51;100.00;101593.69;5017853;28;20558;-83
2021/11/10 03:45:00;;;;;;;12.68;3.33;;;;;;;8.51;100.00;101601.72;5050949;28;20131;-83
2021/11/10 03:47:26;;;;;;;13.88;4.35;;;;;;;8.50;100.00;101609.94;5033376;28;20044;-85
2021/11/10 03:49:51;;;;;;;12.50;3.20;;;;;;;8.36;100.00;101593.25;5050818;28;20041;-85
2021/11/10 03:52:17;;;;;;;18.38;4.07;;;;;;;8.43;100.00;101614.16;5017681;28;20044;-83
2021/11/10 03:54:45;;;;;;;10.75;3.63;;;;;;;8.39;100.00;101605.56;5034158;28;20123;-83
2021/11/10 03:57:11;;;;;;;15.82;4.20;;;;;;;8.40;100.00;101611.75;5033818;28;20029;-83
2021/11/10 03:59:37;;;;;;;18.33;3.40;;;;;;;8.38;100.00;101601.97;5034237;28;20578;-83
2021/11/10 04:02:04;;;;;;;17.13;3.83;;;;;;;8.38;100.00;101601.97;5034104;28;20350;-84
2021/11/10 04:04:30;;;;;;;12.98;3.65;;;;;;;8.41;100.00;101605.41;5050558;28;20020;-83
2021/11/10 04:06:56;;;;;;;9.43;3.03;;;;;;;8.36;100.00;101606.66;5034057;28;20120;-84
2021/11/10 04:09:21;;;;;;;14.93;3.88;;;;;;;8.29;100.00;101605.50;5034014;28;20037;-83
2021/11/10 04:11:47;;;;;;;12.50;3.28;;;;;;;8.30;100.00;101604.50;5033147;28;20056;-84
2021/11/10 04:14:13;;;;;;;15.20;3.83;;;;;;;8.24;100.00;101606.91;5033697;28;20039;-84
2021/11/10 04:16:39;;;;;;;15.88;3.33;;;;;;;8.17;100.00;101609.28;5033878;28;20624;-84
2021/11/10 04:19:04;;;;;;;13.55;2.80;;;;;;;8.13;100.00;101614.09;5033395;28;20037;-83
2021/11/10 04:21:31;;;;;;;14.50;2.63;;;;;;;8.02;100.00;101608.88;5033679;28;20437;-84
2021/11/10 04:23:58;;;;;;;13.20;4.40;;;;;;;7.99;100.00;101617.19;5017273;28;20047;-84
2021/11/10 04:26:27;;;;;;;12.27;3.22;;;;;;;7.86;100.00;101603.19;5033697;28;20033;-84
2021/11/10 04:28:53;;;;;;;8.88;2.78;;;;;;;7.85;100.00;101606.84;5050384;28;20040;-84
2021/11/10 04:31:20;;;;;;;22.08;3.45;;;;;;;7.79;100.00;101605.56;5050132;28;20094;-84
2021/11/10 04:33:46;;;;;;;13.77;2.85;;;;;;;7.74;100.00;101612.31;5017197;28;20440;-83
2021/11/10 04:36:12;;;;;;;22.08;2.60;;;;;;;7.63;100.00;101611.44;5033627;28;20033;-84
2021/11/10 04:38:38;;;;;;;12.77;2.47;;;;;;;7.49;100.00;101615.34;5050029;28;20106;-85
2021/11/10 04:41:04;;;;;;;17.25;2.40;;;;;;;7.47;100.00;101624.47;5049816;28;20494;-85
2021/11/10 04:43:30;;;;;;;32.60;3.30;;;;;;;7.38;100.00;101623.47;5033434;28;20502;-85
2021/11/10 04:46:13;;;;;;;26.98;2.47;;;;;;;7.34;100.00;101631.88;5033587;28;20511;-84
2021/11/10 04:48:40;;;;;;;33.22;2.60;;;;;;;7.25;100.00;101636.19;5050270;28;20622;-85
2021/11/10 04:51:10;;;;;;;25.77;2.58;;;;;;;7.17;100.00;101633.31;5033546;28;20410;-86
2021/11/10 04:53:37;;;;;;;16.15;2.20;;;;;;;7.09;100.00;101641.16;5033290;28;20035;-83
2021/11/10 04:56:04;;;;;;;11.73;2.05;;;;;;;7.04;100.00;101642.41;5017181;28;20471;-85
2021/11/10 04:58:29;;;;;;;16.40;2.10;;;;;;;6.97;100.00;101643.06;5035686;28;20041;-83
2021/11/10 05:00:55;;;;;;;13.90;2.03;;;;;;;6.91;100.00;101649.78;5037426;28;20044;-84
2021/11/10 05:03:21;;;;;;;17.55;2.15;;;;;;;6.76;100.00;101643.06;5020994;28;20045;-84
2021/11/10 05:05:46;;;;;;;15.93;2.05;;;;;;;6.75;100.00;101658.25;5020673;28;20040;-84
2021/11/10 05:08:12;;;;;;;12.73;1.90;;;;;;;6.71;100.00;101666.66;5020890;28;20120;-83
2021/11/10 05:10:38;;;;;;;5.93;1.85;;;;;;;6.68;100.00;101665.09;5053671;28;20037;-84
2021/11/10 05:13:03;;;;;;;7.95;1.60;;;;;;;6.55;100.00;101648.38;5053426;28;20052;-84
2021/11/10 05:15:29;;;;;;;9.23;2.60;;;;;;;6.54;100.00;101660.91;5020450;28;20138;-83
2021/11/10 05:17:55;;;;;;;14.35;2.33;;;;;;;6.51;100.00;101666.50;5037084;28;20043;-84
2021/11/10 05:20:21;;;;;;;6.72;1.70;;;;;;;6.47;100.00;101667.72;5053307;28;20040;-85
2021/11/10 05:22:46;;;;;;;6.95;1.85;;;;;;;6.45;100.00;101668.81;5020582;28;20486;-84
2021/11/10 05:25:12;;;;;;;8.50;1.60;;;;;;;6.44;100.00;101672.47;5037114;28;20048;-89
2021/11/10 05:27:39;;;;;;;17.77;2.05;;;;;;;6.43;100.00;101663.63;5053239;28;20360;-85
2021/11/10 05:30:06;;;;;;;24.92;2.05;;;;;;;6.43;100.00;101662.75;5036687;28;20039;-87
2021/11/10 05:32:32;;;;;;;12.77;1.98;;;;;;;6.45;100.00;101666.13;5020643;28;20047;-86
2021/11/10 05:35:01;;;;;;;13.35;2.50;;;;;;;6.44;100.00;101661.78;5036418;28;20033;-86
2021/11/10 05:37:30;;;;;;;13.27;2.30;;;;;;;6.40;100.00;101663.84;5020746;28;20033;-85
2021/11/10 05:39:56;;;;;;;14.45;2.97;;;;;;;6.29;100.00;101648.69;5036529;28;20037;-85
2021/11/10 05:42:22;;;;;;;13.68;4.53;;;;;;;6.26;100.00;101659.63;5036665;28;20104;-85
2021/11/10 05:44:48;;;;;;;9.70;2.85;;;;;;;6.27;100.00;101665.81;5053107;28;20037;-86
2021/11/10 05:47:13;;;;;;;7.65;2.10;;;;;;;6.20;100.00;101667.31;5052945;28;20386;-85
2021/11/10 05:49:39;;;;;;;8.73;2.08;;;;;;;6.10;100.00;101657.38;5052820;28;20025;-86
2021/11/10 05:52:05;;;;;;;6.20;2.03;;;;;;;6.10;100.00;101665.38;5020080;28;20490;-87
2021/11/10 05:54:31;;;;;;;6.75;1.95;;;;;;;6.05;100.00;101664.91;5036055;28;20025;-86
2021/11/10 05:56:57;;;;;;;6.68;2.10;;;;;;;6.07;100.00;101678.97;5053061;28;20033;-85
2021/11/10 05:59:23;;;;;;;4.75;1.75;;;;;;;6.03;100.00;101666.84;5052875;28;20393;-86
2021/11/10 06:01:48;;;;;;;6.38;2.03;;;;;;;6.01;100.00;101668.81;5052678;28;20078;-87
2021/11/10 06:04:14;;;;;;;4.57;1.80;;;;;;;5.97;100.00;101664.69;5035862;28;20083;-87
2021/11/10 06:06:40;;;;;;;6.68;2.20;;;;;;;5.97;100.00;101671.84;5052772;28;20100;-86
2021/11/10 06:09:06;;;;;;;3.30;1.73;;;;;;;5.89;100.00;101665.25;5051636;28;20021;-85
2021/11/10 06:11:32;;;;;;;3.17;1.45;;;;;;;5.88;100.00;101665.41;5036196;28;20036;-85
2021/11/10 06:13:58;;;;;;;5.25;1.80;;;;;;;5.72;100.00;101653.28;5052246;28;20033;-87
2021/11/10 06:16:23;;;;;;;3.58;1.73;;;;;;;5.62;100.00;101651.47;5019189;28;20055;-86
2021/11/10 06:18:49;;;;;;;4.10;1.98;;;;;;;5.61;100.00;101660.41;5052541;28;20044;-85
2021/11/10 06:21:15;;;;;;;4.65;1.90;;;;;;;5.69;100.00;101677.53;5019531;28;20025;-85
2021/11/10 06:23:41;;;;;;;4.53;1.77;;;;;;;5.62;100.00;101670.97;5035925;28;20048;-85
2021/11/10 06:26:07;;;;;;;3.65;1.90;;;;;;;5.67;100.00;101665.28;5035867;28;20497;-85
2021/11/10 06:28:32;;;;;;;5.90;1.70;;;;;;;5.57;100.00;101658.97;5035923;28;20025;-85
2021/11/10 06:30:58;;;;;;;3.28;1.45;;;;;;;5.59;100.00;101659.72;5019325;28;20039;-86
2021/11/10 06:33:24;;;;;;;3.25;1.60;;;;;;;5.63;100.00;101664.66;5052243;28;20029;-86
2021/11/10 06:35:50;;;;;;;4.18;1.40;;;;;;;5.58;100.00;101666.84;5019294;28;20055;-85
2021/11/10 06:38:16;;;;;;;3.20;1.50;;;;;;;5.58;100.00;101672.19;5052126;28;20061;-86
2021/11/10 06:40:42;;;;;;;10.82;1.83;;;;;;;5.57;100.00;101673.16;5035383;28;20179;-86
2021/11/10 06:43:07;;;;;;;2.60;1.40;;;;;;;5.51;100.00;101674.50;5035369;28;20121;-86
2021/11/10 06:45:33;;;;;;;4.93;1.75;;;;;;;5.44;100.00;101672.44;5035728;28;20044;-86
2021/11/10 06:47:59;;;;;;;4.82;2.13;;;;;;;5.35;100.00;101666.00;5035245;28;20250;-85
2021/11/10 06:50:24;;;;;;;5.43;1.75;;;;;;;5.34;100.00;101676.78;5035379;28;20038;-86
2021/11/10 06:52:50;;;;;;;4.75;1.52;;;;;;;5.30;100.00;101668.19;5018934;28;20119;-85
2021/11/10 06:55:16;;;;;;;7.40;1.67;;;;;;;5.35;100.00;101686.50;5018509;28;20383;-87
2021/11/10 06:57:42;;;;;;;8.80;1.90;;;;;;;5.35;100.00;101682.00;5035240;28;20033;-85
2021/11/10 07:00:10;;;;;;;6.07;1.80;;;;;;;5.34;100.00;101679.44;5035032;28;20032;-85
2021/11/10 07:02:36;;;;;;;6.63;1.45;;;;;;;5.38;100.00;101681.75;5018831;28;20033;-85
2021/11/10 07:05:02;;;;;;;8.80;1.90;;;;;;;5.41;100.00;101696.69;5034814;28;20033;-85
2021/11/10 07:07:27;;;;;;;9.18;2.03;;;;;;;5.24;100.00;101674.84;5018877;28;20498;-85
2021/11/10 07:09:53;;;;;;;6.65;1.80;;;;;;;5.29;100.00;101693.13;5051242;28;20029;-87
2021/11/10 07:12:19;;;;;;;8.25;1.75;;;;;;;5.23;100.00;101689.13;5018581;28;20040;-85
2021/11/10 07:14:45;;;;;;;5.50;1.40;;;;;;;5.17;100.00;101688.75;5018217;28;20467;-84
2021/11/10 07:17:10;;;;;;;12.40;2.63;;;;;;;5.07;100.00;101680.59;5018236;28;20120;-85
2021/11/10 07:19:36;;;;;;;12.68;3.83;;;;;;;5.04;100.00;101688.84;5034739;28;20029;-85
2021/11/10 07:22:02;;;;;;;22.25;4.53;;;;;;;5.08;100.00;101695.66;5018020;28;20040;-86
2021/11/10 07:24:29;;;;;;;18.42;3.28;;;;;;;5.13;100.00;101700.59;5034741;28;20060;-85
2021/11/10 07:26:57;;;;;;;13.35;2.95;;;;;;;5.04;100.00;101687.03;5034878;28;20059;-85
2021/11/10 07:29:23;;;;;;;5.53;1.73;;;;;;;5.16;100.00;101708.38;5018198;28;20521;-86
2021/11/10 07:31:48;;;;;;;8.18;1.60;;;;;;;5.19;100.00;101703.69;5034580;28;20045;-85
2021/11/10 07:34:14;;;;;;;2.45;1.50;;;;;;;5.31;100.00;101711.69;5034368;28;20039;-86
2021/11/10 07:36:40;;;;;;;15.63;1.90;;;;;;;5.32;100.00;101719.59;5034368;28;20021;-85
2021/11/10 07:39:06;;;;;;;6.10;1.65;;;;;;;5.25;100.00;101705.84;5034266;28;20060;-87
2021/11/10 07:41:33;;;;;;;4.82;1.58;;;;;;;5.35;100.00;101719.34;5034130;28;20060;-85
2021/11/10 07:44:00;;;;;;;3.28;1.25;;;;;;;5.38;100.00;101727.09;5052174;28;20048;-86
2021/11/10 07:46:29;;;;;;;4.05;1.33;;;;;;;5.33;100.00;101713.28;5034297;28;20033;-85
2021/11/10 07:48:55;;;;;;;3.30;1.20;;;;;;;5.37;100.00;101720.09;5034515;28;20043;-85
2021/11/10 07:51:21;;;;;;;9.43;1.50;;;;;;;5.41;100.00;101718.00;5033979;28;20028;-87
2021/11/10 07:53:47;;;;;;;5.22;1.40;;;;;;;5.40;100.00;101716.28;5033842;28;20104;-85
2021/11/10 07:56:13;;;;;;;9.52;1.77;;;;;;;5.37;100.00;101714.75;5034059;28;20075;-85
2021/11/10 07:58:39;;;;;;;13.00;1.65;;;;;;;5.47;100.00;101729.03;5050593;28;20032;-85
2021/11/10 08:01:06;;;;;;;7.80;1.40;;;;;;;5.49;100.00;101728.94;5050503;28;20029;-86
2021/11/10 08:03:31;;;;;;;4.40;1.40;;;;;;;5.54;100.00;101724.09;5034299;28;20059;-85
2021/11/10 08:05:57;;;;;;;3.13;1.30;;;;;;;5.57;100.00;101715.84;5033878;28;20573;-84
2021/11/10 08:08:24;;;;;;;5.20;1.33;;;;;;;5.68;100.00;101731.84;5033485;28;20037;-85
2021/11/10 08:10:55;;;;;;;3.20;1.60;;;;;;;5.75;100.00;101728.72;5033773;28;20052;-86
2021/11/10 08:13:22;;;;;;;3.72;1.08;;;;;;;5.77;100.00;101724.09;5017620;28;20425;-87
2021/11/10 08:15:51;;;;;;;5.78;1.25;;;;;;;5.84;100.00;101720.81;5033783;28;20036;-87
2021/11/10 08:18:17;;;;;;;4.45;1.30;;;;;;;5.86;100.00;101726.06;5033770;28;20032;-85
2021/11/10 08:20:43;;;;;;;4.55;1.77;;;;;;;5.92;100.00;101733.56;5033850;28;20059;-86
2021/11/10 08:23:13;;;;;;;3.90;1.38;;;;;;;6.03;100.00;101738.94;5017478;28;20467;-85
2021/11/10 08:25:39;;;;;;;4.57;1.25;;;;;;;6.12;100.00;101746.22;5034094;28;20078;-88
2021/11/10 08:28:04;;;;;;;2.45;1.23;;;;;;;6.16;100.00;101742.31;5050293;28;20037;-86
2021/11/10 08:30:32;;;;;;;2.72;1.40;;;;;;;6.26;100.00;101757.63;5050059;28;20464;-85
2021/11/10 08:32:58;;;;;;;3.35;1.60;;;;;;;6.24;100.00;101744.38;5032802;28;20108;-86
2021/11/10 08:35:24;;;;;;;2.83;1.52;;;;;;;6.36;100.00;101750.56;5050046;28;20505;-85
2021/11/10 08:37:51;;;;;;;2.78;1.40;;;;;;;6.44;100.00;101765.97;5050289;28;20033;-87
2021/11/10 08:40:17;;;;;;;2.97;1.40;;;;;;;6.47;100.00;101761.22;5049961;28;20210;-86
2021/11/10 08:42:43;;;;;;;3.78;1.40;;;;;;;6.64;100.00;101772.34;5017380;28;20171;-86
2021/11/10 08:45:12;;;;;;;2.50;1.38;;;;;;;6.64;100.00;101762.50;5017398;28;20112;-85
2021/11/10 08:47:41;;;;;;;2.55;1.25;;;;;;;6.61;100.00;101757.41;5033492;28;20086;-86
2021/11/10 08:50:08;;;;;;;2.72;1.20;;;;;;;6.72;100.00;101770.78;5033560;28;20463;-85
2021/11/10 08:52:35;;;;;;;2.88;1.00;;;;;;;6.79;100.00;101777.28;5033251;28;20520;-86
2021/11/10 08:55:01;;;;;;;2.72;1.63;;;;;;;6.83;100.00;101767.22;5033516;28;20021;-85
2021/11/10 08:57:26;;;;;;;4.03;1.85;;;;;;;6.90;100.00;101771.06;5049982;28;20041;-86
2021/11/10 08:59:52;;;;;;;5.05;1.98;;;;;;;6.98;100.00;101770.44;5033533;28;20052;-85
2021/11/10 09:02:18;;;;;;;4.65;1.50;;;;;;;7.09;100.00;101774.88;5033144;28;20033;-87
2021/11/10 09:04:44;;;;;;;3.63;1.48;;;;;;;7.15;100.00;101771.72;5049902;28;20033;-85
2021/11/10 09:07:09;;;;;;;6.60;2.63;;;;;;;7.27;100.00;101776.00;5016867;28;20041;-85
2021/11/10 09:09:36;;;;;;;8.77;3.35;;;;;;;7.35;100.00;101776.22;5049930;28;20025;-85
2021/11/10 09:12:03;;;;;;;6.13;2.60;;;;;;;7.44;100.00;101778.13;5032943;28;20122;-88
2021/11/10 09:14:28;;;;;;;6.82;2.65;;;;;;;7.48;100.00;101776.03;5032961;28;20317;-83
2021/11/10 09:16:54;;;;;;;5.95;2.90;;;;;;;7.61;100.00;101779.34;5032899;28;20475;-83
2021/11/10 09:19:20;;;;;;;3.47;1.80;;;;;;;7.71;100.00;101782.09;5016779;28;20033;-83
2021/11/10 09:21:45;;;;;;;6.43;2.15;;;;;;;7.76;100.00;101782.53;5033224;28;20029;-85
2021/11/10 09:24:11;;;;;;;11.90;2.33;;;;;;;7.82;100.00;101779.31;5033357;28;20131;-79
2021/11/10 09:26:39;;;;;;;11.05;5.55;;;;;;;8.00;100.00;101794.78;5049674;28;20103;-79
2021/11/10 09:29:06;;;;;;;15.70;5.15;;;;;;;8.09;100.00;101785.94;5049498;28;20490;-82
2021/11/10 09:31:35;;;;;;;7.90;2.30;;;;;;;8.15;100.00;101791.63;5033369;28;20507;-80
2021/11/10 09:34:04;;;;;;;7.05;1.83;;;;;;;8.17;100.00;101779.91;5049375;28;20029;-80
2021/11/10 09:36:30;;;;;;;4.53;1.45;;;;;;;8.33;100.00;101783.75;5033232;28;20048;-79
2021/11/10 09:38:58;;;;;;;10.57;2.20;;;;;;;8.44;100.00;101765.91;5049663;28;20621;-80
2021/11/10 09:41:24;;;;;;;13.48;2.45;;;;;;;8.58;100.00;101778.94;5033009;28;20093;-80
2021/11/10 09:43:50;;;;;;;5.60;1.52;;;;;;;8.71;100.00;101789.41;5034180;28;20037;-79
2021/11/10 09:46:16;;;;;;;13.73;7.22;;;;;;;8.82;100.00;101796.50;5036458;28;20159;-79
2021/11/10 09:48:41;;;;;;;10.48;4.18;;;;;;;8.85;100.00;101774.75;5020054;28;20386;-81
2021/11/10 09:51:10;;;;;;;11.57;2.38;;;;;;;8.89;100.00;101765.44;5053130;28;20028;-81
2021/11/10 09:53:36;;;;;;;15.40;6.63;;;;;;;9.07;100.00;101785.19;5020063;28;20025;-79
2021/11/10 09:56:04;;;;;;;6.13;1.70;;;;;;;9.17;100.00;101783.38;5020000;28;20025;-81
2021/11/10 09:58:32;;;;;;;4.07;1.63;;;;;;;9.34;100.00;101787.19;5053814;28;20036;-80
2021/11/10 10:01:02;;;;;;;8.30;1.90;;;;;;;9.49;100.00;101778.69;5036699;28;20029;-80
2021/11/10 10:03:28;;;;;;;10.15;1.95;;;;;;;9.53;100.00;101777.44;5019833;28;20079;-80
2021/11/10 10:05:54;;;;;;;6.35;1.90;;;;;;;9.71;100.00;101788.25;5019951;28;20064;-80
2021/11/10 10:08:22;;;;;;;8.20;2.47;;;;;;;9.87;100.00;101792.03;5019647;28;20037;-80
2021/11/10 10:10:49;;;;;;;6.13;1.60;;;;;;;10.01;100.00;101790.72;5036168;28;20032;-80
2021/11/10 10:13:16;;;;;;;7.22;2.03;;;;;;;9.94;100.00;101778.84;5052381;28;20033;-79
2021/11/10 10:15:43;;;;;;;6.88;1.60;;;;;;;10.03;100.00;101775.31;5019819;28;20466;-80
2021/11/10 10:18:20;;;;;;;5.28;1.52;;;;;;;10.00;100.00;101774.72;5036007;28;20379;-80
2021/11/10 10:20:51;;;;;;;8.57;1.70;;;;;;;10.05;100.00;101772.44;5052814;28;20033;-79
2021/11/10 10:23:19;;;;;;;6.10;1.63;;;;;;;10.01;100.00;101776.44;5036187;28;20039;-79
2021/11/10 10:25:52;;;;;;;5.85;1.50;;;;;;;9.99;100.00;101771.19;5035561;28;20039;-80
2021/11/10 10:28:25;;;;;;;6.60;1.67;;;;;;;10.07;100.00;101779.38;5019477;28;20120;-79
2021/11/10 10:31:00;;;;;;;;;;;;;;;10.08;100.00;101775.72;5019603;28;20380;-79
2021/11/10 10:33:32;;;;;;;5.13;1.73;;;;;;;10.12;100.00;101773.56;5053344;28;19912;-81
2021/11/10 10:36:03;;;;;;;7.28;2.08;;;;;;;10.21;100.00;101783.41;5035353;28;20482;-80
2021/11/10 10:38:33;;;;;;;7.47;1.90;;;;;;;10.27;100.00;101774.81;5052155;28;20156;-80
2021/11/10 10:41:02;;;;;;;4.57;1.85;;;;;;;10.38;100.00;101764.84;5019167;28;20471;-80
2021/11/10 10:43:28;;;;;;;11.85;2.50;;;;;;;10.49;99.38;101783.47;5019176;28;20036;-80
2021/11/10 10:45:57;;;;;;;10.38;2.22;;;;;;;10.51;99.12;101778.78;5019027;28;20130;-80
2021/11/10 10:48:24;;;;;;;15.05;3.47;;;;;;;10.59;99.03;101788.78;5052101;28;20029;-81
2021/11/10 10:51:13;;;;;;;8.52;2.55;;;;;;;10.64;98.62;101786.47;5068351;28;20044;-80
2021/11/10 10:53:45;;;;;;;15.02;2.80;;;;;;;10.68;98.34;101783.34;5018830;28;20033;-81
2021/11/10 10:56:16;;;;;;;8.80;1.60;;;;;;;10.85;98.26;101795.13;5018207;28;20033;-80
2021/11/10 10:58:42;;;;;;;10.82;1.75;;;;;;;10.90;97.52;101787.44;5035255;28;20028;-80
2021/11/10 11:01:19;;;;;;;9.32;2.00;;;;;;;10.98;97.91;101783.97;5035066;28;20035;-81
2021/11/10 11:04:04;;;;;;;9.07;2.00;;;;;;;11.06;97.95;101785.88;5052890;28;20033;-80
2021/11/10 11:06:38;;;;;;;12.52;2.83;;;;;;;11.18;97.87;101781.97;5035206;28;20048;-79
2021/11/10 11:09:13;;;;;;;9.98;2.55;;;;;;;11.30;97.58;101775.38;5018472;28;20429;-80
2021/11/10 11:11:53;;;;;;;10.13;2.22;;;;;;;11.35;97.36;101781.13;5051222;28;20068;-81
2021/11/10 11:15:05;;;;;;;4.80;2.03;;;;;;;11.42;96.64;101781.34;5019434;28;20083;-81
2021/11/10 11:17:29;;;;;;;5.95;1.60;;;;;;;11.51;96.24;101785.81;5034841;28;20060;-80
2021/11/10 11:20:15;;;;;;;8.93;2.47;;;;;;;11.48;96.33;101775.31;5034449;28;20033;-79